Time;durP1;ratioP1;P1;durP2;ratioP2;P2;SDS_P1;SDS_P2;PMS_P1;PMS_P2;Temp;Humidity;BMP_temperature;BMP_pressure;BME280_temperature;BME280_humidity;BME280_pressure;Samples;Min_cycle;Max_cycle;Signal;HPM_P1;HPM_P2
2023/04/08 00:00:02;;;;;;;;;;;5.50;70.40;;;;;;5099872;27;88215;-41
2023/04/08 00:02:28;;;;;;;;;;;5.40;70.40;;;;;;5103010;27;88558;-41
2023/04/08 00:04:53;;;;;;;;;;;5.40;70.40;;;;;;5103975;27;89739;-41
2023/04/08 00:07:19;;;;;;;;;;;5.40;70.40;;;;;;5103910;27;87207;-41
2023/04/08 00:09:44;;;;;;;;;;;5.50;70.40;;;;;;5106567;27;87032;-41
2023/04/08 00:12:10;;;;;;;;;;;5.40;70.40;;;;;;5099413;27;89609;-41
2023/04/08 00:14:37;;;;;;;;;;;5.50;70.40;;;;;;5103558;27;86898;-41
2023/04/08 00:17:02;;;;;;;;;;;5.40;70.40;;;;;;5104129;27;87765;-41
2023/04/08 00:19:28;;;;;;;;;;;5.40;70.40;;;;;;5103890;27;87324;-41
2023/04/08 00:21:53;;;;;;;;;;;5.40;70.40;;;;;;5103803;27;87139;-41
2023/04/08 00:24:19;;;;;;;;;;;5.40;70.30;;;;;;5103810;27;88749;-41
2023/04/08 00:26:44;;;;;;;;;;;5.40;70.30;;;;;;5102651;27;91074;-41
2023/04/08 00:29:10;;;;;;;;;;;5.40;70.30;;;;;;5103321;27;87237;-41
2023/04/08 00:31:35;;;;;;;;;;;5.40;70.30;;;;;;5106122;27;88617;-41
2023/04/08 00:34:01;;;;;;;;;;;5.40;70.30;;;;;;5103434;27;87080;-41
2023/04/08 00:36:27;;;;;;;;;;;5.40;70.30;;;;;;5103316;27;88757;-41
2023/04/08 00:38:52;;;;;;;;;;;5.40;70.30;;;;;;5103116;27;89434;-41
2023/04/08 00:41:18;;;;;;;;;;;5.40;70.30;;;;;;5104089;27;88160;-41
2023/04/08 00:43:43;;;;;;;;;;;5.40;70.30;;;;;;5103813;27;87552;-41
2023/04/08 00:46:09;;;;;;;;;;;5.40;70.40;;;;;;5099505;27;88016;-41
2023/04/08 00:48:35;;;;;;;;;;;5.40;70.40;;;;;;5103360;27;87098;-41
2023/04/08 00:51:01;;;;;;;;;;;5.40;70.40;;;;;;5105744;27;87964;-41
2023/04/08 00:53:26;;;;;;;;;;;5.40;70.40;;;;;;5102849;27;87741;-41
2023/04/08 00:55:51;;;;;;;;;;;5.40;70.40;;;;;;5103308;27;88534;-41
2023/04/08 00:58:17;;;;;;;;;;;5.40;70.40;;;;;;5102601;27;87475;-41
2023/04/08 01:00:45;;;;;;;;;;;5.40;70.40;;;;;;5103223;27;87085;-41
2023/04/08 01:03:25;;;;;;;;;;;5.40;70.40;;;;;;5102034;27;90135;-41
2023/04/08 01:06:14;;;;;;;;;;;5.40;70.30;;;;;;5102564;27;89268;-41
2023/04/08 01:08:40;;;;;;;;;;;5.40;70.40;;;;;;5102262;27;86731;-41
2023/04/08 01:11:08;;;;;;;;;;;5.40;70.40;;;;;;5099082;27;88202;-41
2023/04/08 01:13:35;;;;;;;;;;;5.40;70.70;;;;;;5104844;27;89518;-41
2023/04/08 01:16:00;;;;;;;;;;;5.40;70.40;;;;;;5102710;27;88027;-41
2023/04/08 01:18:27;;;;;;;;;;;5.40;70.40;;;;;;5102846;27;87977;-41
2023/04/08 01:20:53;;;;;;;;;;;5.40;70.40;;;;;;5102303;27;87101;-41
2023/04/08 01:23:37;;;;;;;;;;;5.40;70.40;;;;;;5102763;27;87515;-41
2023/04/08 01:26:03;;;;;;;;;;;5.40;70.60;;;;;;5102615;27;89308;-40
2023/04/08 01:28:29;;;;;;;;;;;5.40;70.40;;;;;;5102425;27;87214;-40
2023/04/08 01:30:56;;;;;;;;;;;5.40;70.50;;;;;;5102936;27;88699;-41
2023/04/08 01:33:21;;;;;;;;;;;5.40;70.40;;;;;;5102723;27;88786;-41
2023/04/08 01:35:47;;;;;;;;;;;5.40;70.40;;;;;;5105613;27;87164;-40
2023/04/08 01:38:17;;;;;;;;;;;5.40;70.40;;;;;;5101982;27;89409;-41
2023/04/08 01:40:43;;;;;;;;;;;5.40;70.50;;;;;;5101833;27;88106;-41
2023/04/08 01:43:09;;;;;;;;;;;5.40;70.40;;;;;;5102509;27;89944;-41
2023/04/08 01:45:35;;;;;;;;;;;5.30;70.30;;;;;;5102124;27;89282;-41
2023/04/08 01:48:01;;;;;;;;;;;5.30;70.40;;;;;;5102298;27;87123;-41
2023/04/08 01:50:27;;;;;;;;;;;5.30;70.40;;;;;;5102674;27;87497;-41
2023/04/08 01:52:53;;;;;;;;;;;5.40;70.40;;;;;;5101650;27;88300;-41
2023/04/08 01:55:19;;;;;;;;;;;5.40;70.40;;;;;;5102299;27;87217;-41
2023/04/08 01:57:49;;;;;;;;;;;5.30;70.40;;;;;;5105472;27;87908;-41
2023/04/08 02:00:17;;;;;;;;;;;5.30;70.40;;;;;;5102433;27;87189;-41
2023/04/08 02:02:43;;;;;;;;;;;5.30;70.30;;;;;;5102483;27;87348;-41
2023/04/08 02:05:08;;;;;;;;;;;5.30;70.40;;;;;;5101096;27;89222;-41
2023/04/08 02:07:34;;;;;;;;;;;5.30;70.30;;;;;;5102286;27;87581;-41
2023/04/08 02:09:59;;;;;;;;;;;5.30;70.40;;;;;;5102471;27;88917;-41
2023/04/08 02:12:26;;;;;;;;;;;5.30;70.40;;;;;;5102074;27;88089;-40
2023/04/08 02:14:52;;;;;;;;;;;5.30;70.50;;;;;;5102029;27;87112;-41
2023/04/08 02:17:24;;;;;;;;;;;5.30;70.50;;;;;;5101968;27;88962;-40
2023/04/08 02:19:50;;;;;;;;;;;5.30;70.50;;;;;;5100644;27;87921;-41
2023/04/08 02:22:23;;;;;;;;;;;5.20;70.60;;;;;;5102468;27;88971;-41
2023/04/08 02:24:49;;;;;;;;;;;5.20;70.60;;;;;;5101504;27;89247;-41
2023/04/08 02:27:16;;;;;;;;;;;5.20;70.60;;;;;;5101958;27;87199;-41
2023/04/08 02:29:41;;;;;;;;;;;5.30;70.60;;;;;;5101303;27;88006;-41
2023/04/08 02:32:09;;;;;;;;;;;5.30;70.60;;;;;;5102797;27;88693;-41
2023/04/08 02:34:36;;;;;;;;;;;5.20;70.60;;;;;;5105497;27;87487;-41
2023/04/08 02:37:01;;;;;;;;;;;5.30;70.60;;;;;;5105836;27;87850;-41
2023/04/08 02:39:31;;;;;;;;;;;5.20;70.60;;;;;;5105079;27;89481;-41
2023/04/08 02:41:57;;;;;;;;;;;5.20;70.50;;;;;;5104773;27;87031;-41
2023/04/08 02:44:22;;;;;;;;;;;5.20;70.50;;;;;;5104770;27;89421;-41
2023/04/08 02:46:48;;;;;;;;;;;5.20;70.60;;;;;;5105723;27;86427;-41
2023/04/08 02:49:13;;;;;;;;;;;5.30;70.60;;;;;;5105127;27;87812;-41
2023/04/08 02:51:39;;;;;;;;;;;5.20;70.70;;;;;;5105007;27;89557;-41
2023/04/08 02:54:04;;;;;;;;;;;5.20;70.70;;;;;;5104346;27;88135;-41
2023/04/08 02:56:30;;;;;;;;;;;5.20;70.70;;;;;;5105129;27;89685;-41
2023/04/08 02:58:55;;;;;;;;;;;5.20;70.70;;;;;;5104737;27;88102;-41
2023/04/08 03:01:21;;;;;;;;;;;5.20;70.60;;;;;;5104436;27;87774;-41
2023/04/08 03:03:46;;;;;;;;;;;5.20;70.50;;;;;;5104603;27;89737;-41
2023/04/08 03:06:12;;;;;;;;;;;5.20;70.60;;;;;;5105274;27;87586;-41
2023/04/08 03:08:37;;;;;;;;;;;5.20;70.70;;;;;;5105023;27;88963;-41
2023/04/08 03:11:03;;;;;;;;;;;5.20;70.60;;;;;;5105293;27;86872;-41
2023/04/08 03:13:28;;;;;;;;;;;5.20;70.60;;;;;;5104660;27;88070;-41
2023/04/08 03:15:54;;;;;;;;;;;5.20;70.60;;;;;;5103457;27;88859;-41
2023/04/08 03:18:20;;;;;;;;;;;5.20;70.60;;;;;;5103653;27;90969;-41
2023/04/08 03:20:45;;;;;;;;;;;5.20;70.60;;;;;;5104517;27;87108;-41
2023/04/08 03:23:11;;;;;;;;;;;5.20;70.60;;;;;;5107394;27;87713;-41
2023/04/08 03:25:36;;;;;;;;;;;5.20;70.40;;;;;;5104944;27;87068;-41
2023/04/08 03:28:02;;;;;;;;;;;5.20;70.50;;;;;;5104848;27;88591;-41
2023/04/08 03:30:27;;;;;;;;;;;5.20;70.60;;;;;;5103740;27;89695;-41
2023/04/08 03:32:53;;;;;;;;;;;5.20;70.60;;;;;;5104876;27;87427;-41
2023/04/08 03:35:18;;;;;;;;;;;5.20;70.70;;;;;;5105087;27;89758;-41
2023/04/08 03:37:45;;;;;;;;;;;5.20;70.70;;;;;;5104154;27;87646;-41
2023/04/08 03:40:11;;;;;;;;;;;5.20;70.70;;;;;;5104153;27;87110;-41
2023/04/08 03:42:36;;;;;;;;;;;5.10;70.70;;;;;;5103636;27;89220;-41
2023/04/08 03:45:02;;;;;;;;;;;5.10;70.70;;;;;;5105348;27;89550;-41
2023/04/08 03:47:28;;;;;;;;;;;5.20;70.70;;;;;;5101356;27;88579;-41
2023/04/08 03:49:53;;;;;;;;;;;5.10;70.70;;;;;;5104288;27;87597;-40
2023/04/08 03:52:19;;;;;;;;;;;5.20;70.70;;;;;;5104319;27;87120;-41
2023/04/08 03:54:44;;;;;;;;;;;5.20;70.70;;;;;;5104469;27;87412;-41
2023/04/08 03:57:11;;;;;;;;;;;5.10;70.70;;;;;;5099946;27;89347;-41
2023/04/08 03:59:38;;;;;;;;;;;5.10;70.70;;;;;;5104744;27;86545;-41
2023/04/08 04:02:04;;;;;;;;;;;5.20;70.70;;;;;;5104062;27;88170;-41
2023/04/08 04:04:29;;;;;;;;;;;5.10;70.70;;;;;;5103417;27;88199;-41
2023/04/08 04:06:55;;;;;;;;;;;5.10;70.70;;;;;;5106290;27;88108;-41
2023/04/08 04:09:20;;;;;;;;;;;5.20;70.70;;;;;;5103519;27;89335;-41
2023/04/08 04:11:46;;;;;;;;;;;5.10;70.70;;;;;;5103950;27;87104;-41
2023/04/08 04:14:11;;;;;;;;;;;5.10;70.70;;;;;;5103764;27;87402;-41
2023/04/08 04:16:37;;;;;;;;;;;5.10;70.70;;;;;;5103494;27;89243;-41
2023/04/08 04:19:02;;;;;;;;;;;5.20;70.60;;;;;;5103902;27;87892;-41
2023/04/08 04:21:28;;;;;;;;;;;5.10;70.60;;;;;;5104013;27;87001;-41
2023/04/08 04:23:53;;;;;;;;;;;5.10;70.70;;;;;;5103604;27;88659;-41
2023/04/08 04:26:19;;;;;;;;;;;5.10;70.70;;;;;;5103676;27;87139;-41
2023/04/08 04:28:45;;;;;;;;;;;5.10;70.60;;;;;;5106186;27;88597;-41
2023/04/08 04:31:21;;;;;;;;;;;5.20;70.60;;;;;;5103341;27;88070;-41
2023/04/08 04:33:46;;;;;;;;;;;5.10;70.60;;;;;;5103632;27;88789;-41
2023/04/08 04:36:12;;;;;;;;;;;5.10;70.70;;;;;;5103280;27;89655;-41
2023/04/08 04:38:38;;;;;;;;;;;5.10;70.70;;;;;;5103389;27;87105;-41
2023/04/08 04:41:03;;;;;;;;;;;5.10;70.60;;;;;;5099109;27;88703;-41
2023/04/08 04:43:29;;;;;;;;;;;5.10;70.70;;;;;;5103331;27;88140;-41
2023/04/08 04:45:55;;;;;;;;;;;5.10;70.70;;;;;;5103617;27;87108;-41
2023/04/08 04:48:21;;;;;;;;;;;5.20;70.60;;;;;;5106073;27;88943;-40
2023/04/08 04:50:57;;;;;;;;;;;5.10;70.60;;;;;;5103215;27;87083;-40
2023/04/08 04:53:23;;;;;;;;;;;5.10;70.50;;;;;;5099780;27;87758;-40
2023/04/08 04:55:51;;;;;;;;;;;5.20;70.50;;;;;;5101293;27;88944;-40
2023/04/08 04:58:18;;;;;;;;;;;5.10;70.50;;;;;;5103289;27;87170;-41
2023/04/08 05:00:43;;;;;;;;;;;5.10;70.50;;;;;;5103283;27;87784;-40
2023/04/08 05:03:09;;;;;;;;;;;5.20;70.50;;;;;;5102605;27;88376;-40
2023/04/08 05:05:34;;;;;;;;;;;5.20;70.50;;;;;;5103005;27;87409;-40
2023/04/08 05:08:00;;;;;;;;;;;5.10;70.50;;;;;;5103401;27;87312;-41
2023/04/08 05:10:25;;;;;;;;;;;5.10;70.60;;;;;;5105378;27;88145;-41
2023/04/08 05:12:51;;;;;;;;;;;5.10;70.50;;;;;;5103640;27;88886;-41
2023/04/08 05:15:16;;;;;;;;;;;5.10;70.60;;;;;;5102461;27;88209;-40
2023/04/08 05:17:42;;;;;;;;;;;5.10;70.60;;;;;;5102648;27;87222;-41
2023/04/08 05:20:07;;;;;;;;;;;5.10;70.50;;;;;;5102142;27;89246;-41
2023/04/08 05:22:33;;;;;;;;;;;5.10;70.40;;;;;;5102236;27;89544;-40
2023/04/08 05:24:59;;;;;;;;;;;5.20;70.40;;;;;;5102847;27;87390;-40
2023/04/08 05:27:25;;;;;;;;;;;5.10;70.50;;;;;;5103007;27;88701;-41
2023/04/08 05:29:50;;;;;;;;;;;5.10;70.50;;;;;;5102160;27;89261;-40
2023/04/08 05:32:16;;;;;;;;;;;5.10;70.50;;;;;;5105451;27;87330;-40
2023/04/08 05:34:41;;;;;;;;;;;5.10;70.50;;;;;;5102301;27;88181;-41
2023/04/08 05:37:07;;;;;;;;;;;5.10;70.50;;;;;;5102860;27;86425;-41
2023/04/08 05:39:32;;;;;;;;;;;5.10;70.50;;;;;;5102564;27;88060;-41
2023/04/08 05:41:58;;;;;;;;;;;5.10;70.40;;;;;;5102198;27;89390;-41
2023/04/08 05:44:23;;;;;;;;;;;5.10;70.50;;;;;;5102158;27;88034;-41
2023/04/08 05:46:49;;;;;;;;;;;5.20;70.50;;;;;;5098408;27;89748;-41
2023/04/08 05:49:16;;;;;;;;;;;5.10;70.40;;;;;;5102417;27;88035;-41
2023/04/08 05:51:42;;;;;;;;;;;5.20;70.60;;;;;;5102553;27;87340;-41
2023/04/08 05:54:07;;;;;;;;;;;5.10;70.50;;;;;;5105112;27;88746;-41
2023/04/08 05:56:33;;;;;;;;;;;5.10;70.60;;;;;;5102806;27;87042;-41
2023/04/08 05:58:59;;;;;;;;;;;5.10;70.50;;;;;;5102501;27;87812;-41
2023/04/08 06:01:25;;;;;;;;;;;5.20;70.50;;;;;;5102788;27;88608;-41
2023/04/08 06:03:51;;;;;;;;;;;5.20;70.50;;;;;;5098074;27;87103;-41
2023/04/08 06:06:17;;;;;;;;;;;5.10;70.40;;;;;;5102453;27;88574;-41
2023/04/08 06:08:43;;;;;;;;;;;5.20;70.40;;;;;;5104551;27;90474;-41
2023/04/08 06:11:08;;;;;;;;;;;5.20;70.40;;;;;;5105940;27;87681;-41
2023/04/08 06:13:34;;;;;;;;;;;5.20;70.50;;;;;;5105615;27;88644;-41
2023/04/08 06:16:08;;;;;;;;;;;5.20;70.50;;;;;;5108859;27;87911;-41
2023/04/08 06:18:34;;;;;;;;;;;5.20;70.50;;;;;;5102874;27;88739;-41
2023/04/08 06:20:59;;;;;;;;;;;5.20;70.60;;;;;;5105484;27;88239;-41
2023/04/08 06:23:25;;;;;;;;;;;5.10;70.50;;;;;;5101669;27;88322;-41
2023/04/08 06:25:52;;;;;;;;;;;5.10;70.60;;;;;;5106844;27;87418;-41
2023/04/08 06:28:17;;;;;;;;;;;5.10;70.60;;;;;;5105543;27;89114;-41
2023/04/08 06:30:43;;;;;;;;;;;5.10;70.50;;;;;;5105420;27;87177;-41
2023/04/08 06:33:08;;;;;;;;;;;5.20;70.60;;;;;;5104954;27;88632;-41
2023/04/08 06:35:36;;;;;;;;;;;5.20;70.60;;;;;;5105493;27;88213;-41
2023/04/08 06:38:01;;;;;;;;;;;5.10;70.60;;;;;;5108682;27;87101;-41
2023/04/08 06:40:27;;;;;;;;;;;5.10;70.70;;;;;;5104966;27;89683;-41
2023/04/08 06:42:53;;;;;;;;;;;5.10;70.90;;;;;;5105491;27;87265;-41
2023/04/08 06:45:18;;;;;;;;;;;5.10;70.80;;;;;;5101499;27;87358;-41
2023/04/08 06:47:44;;;;;;;;;;;5.10;70.80;;;;;;5104996;27;89370;-40
2023/04/08 06:50:10;;;;;;;;;;;5.10;70.70;;;;;;5106045;27;86447;-41
2023/04/08 06:52:35;;;;;;;;;;;5.10;70.80;;;;;;5105425;27;88247;-41
2023/04/08 06:55:01;;;;;;;;;;;5.10;70.80;;;;;;5104730;27;89506;-41
2023/04/08 06:57:26;;;;;;;;;;;5.10;70.80;;;;;;5108104;27;88255;-40
2023/04/08 06:59:52;;;;;;;;;;;5.10;70.90;;;;;;5104995;27;89583;-41
2023/04/08 07:02:18;;;;;;;;;;;5.10;71.00;;;;;;5104882;27;87688;-40
2023/04/08 07:04:43;;;;;;;;;;;5.10;70.90;;;;;;5104999;27;88752;-40
2023/04/08 07:07:09;;;;;;;;;;;5.10;71.00;;;;;;5105127;27;87145;-41
2023/04/08 07:09:35;;;;;;;;;;;5.10;71.00;;;;;;5105413;27;87830;-40
2023/04/08 07:12:02;;;;;;;;;;;5.10;71.10;;;;;;5105014;27;87828;-40
2023/04/08 07:14:28;;;;;;;;;;;5.10;71.10;;;;;;5104810;27;88967;-41
2023/04/08 07:16:55;;;;;;;;;;;5.10;71.10;;;;;;5105047;27;87225;-40
2023/04/08 07:19:23;;;;;;;;;;;5.10;71.10;;;;;;5106906;27;86969;-40
2023/04/08 07:21:48;;;;;;;;;;;5.10;71.00;;;;;;5104106;27;87943;-41
2023/04/08 07:24:14;;;;;;;;;;;5.10;71.10;;;;;;5104957;27;89873;-41
2023/04/08 07:26:40;;;;;;;;;;;5.10;71.10;;;;;;5104512;27;88468;-41
2023/04/08 07:29:06;;;;;;;;;;;5.20;71.10;;;;;;5105072;27;87640;-41
2023/04/08 07:31:32;;;;;;;;;;;5.10;71.00;;;;;;5104865;27;88679;-41
2023/04/08 07:33:57;;;;;;;;;;;5.20;71.10;;;;;;5104073;27;88914;-41
2023/04/08 07:36:23;;;;;;;;;;;5.10;71.20;;;;;;5104552;27;87393;-41
2023/04/08 07:38:48;;;;;;;;;;;5.10;71.20;;;;;;5105010;27;87412;-40
2023/04/08 07:41:14;;;;;;;;;;;5.10;71.20;;;;;;5107398;27;89631;-41
2023/04/08 07:43:40;;;;;;;;;;;5.10;71.30;;;;;;5104682;27;87660;-41
2023/04/08 07:46:06;;;;;;;;;;;5.20;71.20;;;;;;5103322;27;90247;-41
2023/04/08 07:48:32;;;;;;;;;;;5.10;71.20;;;;;;5105056;27;87084;-41
2023/04/08 07:50:57;;;;;;;;;;;5.20;71.30;;;;;;5104384;27;88559;-41
2023/04/08 07:53:25;;;;;;;;;;;5.10;71.20;;;;;;5103845;27;88459;-41
2023/04/08 07:55:50;;;;;;;;;;;5.10;71.30;;;;;;5104524;27;87055;-41
2023/04/08 07:58:16;;;;;;;;;;;5.20;71.30;;;;;;5100538;27;88705;-41
2023/04/08 08:00:41;;;;;;;;;;;5.20;71.10;;;;;;5103585;27;88025;-41
2023/04/08 08:03:07;;;;;;;;;;;5.20;71.10;;;;;;5107475;27;86431;-41
2023/04/08 08:05:32;;;;;;;;;;;5.20;71.10;;;;;;5103645;27;89141;-41
2023/04/08 08:07:58;;;;;;;;;;;5.20;71.10;;;;;;5103880;27;87089;-41
2023/04/08 08:10:23;;;;;;;;;;;5.30;71.10;;;;;;5102176;27;90233;-41
2023/04/08 08:12:49;;;;;;;;;;;5.30;71.20;;;;;;5103895;27;89205;-41
2023/04/08 08:15:15;;;;;;;;;;;5.30;71.10;;;;;;5103614;27;91148;-41
2023/04/08 08:17:41;;;;;;;;;;;5.30;71.10;;;;;;5104290;27;88650;-41
2023/04/08 08:20:06;;;;;;;;;;;5.30;71.20;;;;;;5103782;27;88348;-41
2023/04/08 08:22:32;;;;;;;;;;;5.30;71.20;;;;;;5104092;27;87319;-41
2023/04/08 08:24:58;;;;;;;;;;;5.30;71.20;;;;;;5106914;27;87126;-41
2023/04/08 08:27:23;;;;;;;;;;;5.40;71.10;;;;;;5104215;27;86448;-41
2023/04/08 08:29:49;;;;;;;;;;;5.40;71.20;;;;;;5104096;27;86989;-41
2023/04/08 08:32:15;;;;;;;;;;;5.40;71.00;;;;;;5103261;27;89349;-41
2023/04/08 08:34:40;;;;;;;;;;;5.40;71.10;;;;;;5103091;27;88054;-41
2023/04/08 08:37:06;;;;;;;;;;;5.40;71.00;;;;;;5103435;27;89951;-41
2023/04/08 08:39:32;;;;;;;;;;;5.40;71.00;;;;;;5103544;27;88059;-41
2023/04/08 08:41:57;;;;;;;;;;;5.40;71.10;;;;;;5103912;27;87198;-41
2023/04/08 08:44:23;;;;;;;;;;;5.40;70.90;;;;;;5103756;27;88943;-41
2023/04/08 08:46:48;;;;;;;;;;;5.50;70.90;;;;;;5106198;27;89410;-41
2023/04/08 08:49:14;;;;;;;;;;;5.50;70.90;;;;;;5103618;27;88014;-40
2023/04/08 08:51:40;;;;;;;;;;;5.50;71.00;;;;;;5104371;27;88521;-40
2023/04/08 08:54:07;;;;;;;;;;;5.50;71.00;;;;;;5103355;27;87825;-40
2023/04/08 08:56:33;;;;;;;;;;;5.50;71.30;;;;;;5103607;27;88791;-40
2023/04/08 08:58:58;;;;;;;;;;;5.60;71.20;;;;;;5102074;27;90128;-40
2023/04/08 09:01:31;;;;;;;;;;;5.50;70.90;;;;;;5102935;27;87163;-40
2023/04/08 09:04:06;;;;;;;;;;;5.50;71.00;;;;;;5103193;27;89084;-40
2023/04/08 09:06:31;;;;;;;;;;;5.60;71.00;;;;;;5101685;27;89383;-40
2023/04/08 09:08:57;;;;;;;;;;;5.60;71.10;;;;;;5102790;27;88465;-40
2023/04/08 09:11:22;;;;;;;;;;;5.60;71.40;;;;;;5102784;27;89049;-40
2023/04/08 09:13:48;;;;;;;;;;;5.60;70.90;;;;;;5102200;27;87200;-40
2023/04/08 09:16:16;;;;;;;;;;;5.60;71.00;;;;;;5099600;27;87814;-40
2023/04/08 09:18:43;;;;;;;;;;;5.70;71.10;;;;;;5102517;27;88228;-40
2023/04/08 09:21:09;;;;;;;;;;;5.70;71.00;;;;;;5102932;27;87573;-40
2023/04/08 09:23:38;;;;;;;;;;;5.70;71.10;;;;;;5102301;27;88757;-40
2023/04/08 09:26:11;;;;;;;;;;;5.70;71.80;;;;;;5102708;27;88378;-40
2023/04/08 09:28:37;;;;;;;;;;;5.70;71.20;;;;;;5105814;27;87625;-40
2023/04/08 09:31:23;;;;;;;;;;;5.80;71.10;;;;;;5102442;27;89358;-40
2023/04/08 09:33:53;;;;;;;;;;;5.70;71.10;;;;;;5098816;27;87158;-40
2023/04/08 09:36:19;;;;;;;;;;;5.70;71.20;;;;;;5102734;27;89006;-40
2023/04/08 09:38:45;;;;;;;;;;;5.60;71.50;;;;;;5102342;27;89805;-40
2023/04/08 09:41:15;;;;;;;;;;;5.70;71.70;;;;;;5102515;27;86407;-40
2023/04/08 09:43:48;;;;;;;;;;;5.70;71.70;;;;;;5102313;27;88360;-40
2023/04/08 09:46:14;;;;;;;;;;;5.70;71.60;;;;;;5102378;27;89218;-40
2023/04/08 09:48:45;;;;;;;;;;;5.70;71.50;;;;;;5102203;27;88078;-40
2023/04/08 09:51:13;;;;;;;;;;;5.70;71.50;;;;;;5105231;27;89585;-40
2023/04/08 09:53:42;;;;;;;;;;;5.70;71.50;;;;;;5102604;27;88218;-40
2023/04/08 09:56:09;;;;;;;;;;;5.70;71.70;;;;;;5102385;27;88811;-40
2023/04/08 09:58:38;;;;;;;;;;;5.70;71.70;;;;;;5101588;27;88228;-40
2023/04/08 10:01:05;;;;;;;;;;;5.70;71.90;;;;;;5102590;27;87360;-40
2023/04/08 10:03:39;;;;;;;;;;;5.70;71.80;;;;;;5102103;27;88821;-40
2023/04/08 10:06:07;;;;;;;;;;;5.70;71.70;;;;;;5102389;27;88661;-40
2023/04/08 10:08:32;;;;;;;;;;;5.80;71.70;;;;;;5102252;27;87051;-40
2023/04/08 10:10:58;;;;;;;;;;;5.80;71.50;;;;;;5102171;27;89805;-40
2023/04/08 10:13:24;;;;;;;;;;;5.80;71.90;;;;;;5103722;27;90941;-40
2023/04/08 10:15:49;;;;;;;;;;;5.80;71.70;;;;;;5102260;27;89564;-40
2023/04/08 10:18:19;;;;;;;;;;;5.80;71.70;;;;;;5102075;27;88076;-40
2023/04/08 10:20:48;;;;;;;;;;;5.90;71.80;;;;;;5102066;27;87177;-40
2023/04/08 10:23:14;;;;;;;;;;;5.90;71.70;;;;;;5101728;27;88720;-40
2023/04/08 10:25:40;;;;;;;;;;;5.90;71.80;;;;;;5101791;27;89207;-40
2023/04/08 10:28:12;;;;;;;;;;;5.80;71.90;;;;;;5102329;27;87104;-40
2023/04/08 10:30:38;;;;;;;;;;;5.80;72.20;;;;;;5102435;27;88849;-40
2023/04/08 10:33:12;;;;;;;;;;;5.80;72.20;;;;;;5101736;27;89430;-40
2023/04/08 10:35:41;;;;;;;;;;;5.80;72.20;;;;;;5104954;27;87450;-40
2023/04/08 10:38:06;;;;;;;;;;;5.80;72.60;;;;;;5100918;27;89295;-40
2023/04/08 10:40:40;;;;;;;;;;;5.70;72.80;;;;;;5098470;27;87332;-40
2023/04/08 10:43:06;;;;;;;;;;;5.80;72.50;;;;;;5098574;27;87537;-40
2023/04/08 10:45:31;;;;;;;;;;;5.80;72.70;;;;;;5101632;27;87990;-40
2023/04/08 10:48:10;;;;;;;;;;;5.80;72.80;;;;;;5102027;27;87733;-40
2023/04/08 10:50:35;;;;;;;;;;;5.80;72.50;;;;;;5098571;27;89036;-40
2023/04/08 10:53:01;;;;;;;;;;;5.80;72.80;;;;;;5101471;27;88255;-40
2023/04/08 10:55:27;;;;;;;;;;;5.80;72.80;;;;;;5104670;27;86379;-40
2023/04/08 10:57:53;;;;;;;;;;;5.90;72.70;;;;;;5107870;27;87298;-40
2023/04/08 11:00:31;;;;;;;;;;;5.90;72.40;;;;;;5104906;27;87091;-40
2023/04/08 11:03:01;;;;;;;;;;;5.80;72.90;;;;;;5101189;27;88682;-40
2023/04/08 11:05:27;;;;;;;;;;;5.90;72.90;;;;;;5105004;27;88051;-40
2023/04/08 11:07:53;;;;;;;;;;;6.00;72.70;;;;;;5105066;27;87136;-40
2023/04/08 11:10:19;;;;;;;;;;;6.00;72.70;;;;;;5101025;27;89394;-40
2023/04/08 11:12:44;;;;;;;;;;;6.00;72.90;;;;;;5105046;27;88548;-40
2023/04/08 11:15:12;;;;;;;;;;;6.00;72.70;;;;;;5104075;27;90005;-40
2023/04/08 11:17:37;;;;;;;;;;;6.00;72.80;;;;;;5107674;27;87450;-40
2023/04/08 11:20:05;;;;;;;;;;;6.00;72.80;;;;;;5105008;27;86287;-40
2023/04/08 11:22:32;;;;;;;;;;;5.90;73.20;;;;;;5104795;27;88030;-40
2023/04/08 11:24:58;;;;;;;;;;;6.00;73.10;;;;;;5104592;27;89074;-40
2023/04/08 11:27:25;;;;;;;;;;;6.00;73.20;;;;;;5100174;27;88715;-40
2023/04/08 11:29:51;;;;;;;;;;;5.90;73.40;;;;;;5104474;27;90002;-40
2023/04/08 11:32:17;;;;;;;;;;;5.90;73.50;;;;;;5104207;27;89399;-40
2023/04/08 11:34:43;;;;;;;;;;;6.00;73.50;;;;;;5104242;27;87183;-40
2023/04/08 11:37:08;;;;;;;;;;;6.00;73.50;;;;;;5096394;27;88731;-40
2023/04/08 11:39:39;;;;;;;;;;;6.00;73.50;;;;;;5106851;27;89432;-40
2023/04/08 11:42:04;;;;;;;;;;;6.00;73.40;;;;;;5104707;27;88929;-40
2023/04/08 11:44:31;;;;;;;;;;;6.00;73.40;;;;;;5104719;27;87289;-40
2023/04/08 11:46:57;;;;;;;;;;;6.10;73.30;;;;;;5104077;27;87100;-40
2023/04/08 11:49:23;;;;;;;;;;;6.00;73.70;;;;;;5099872;27;87758;-40
2023/04/08 11:51:56;;;;;;;;;;;6.00;73.50;;;;;;5102677;27;90363;-40
2023/04/08 11:54:25;;;;;;;;;;;6.10;73.30;;;;;;5103593;27;86982;-40
2023/04/08 11:56:52;;;;;;;;;;;6.00;73.60;;;;;;5104436;27;88904;-40
2023/04/08 11:59:18;;;;;;;;;;;6.00;73.60;;;;;;5103733;27;89512;-41
2023/04/08 12:01:43;;;;;;;;;;;6.10;73.50;;;;;;5106705;27;87747;-41
2023/04/08 12:04:09;;;;;;;;;;;6.00;73.90;;;;;;5103136;27;89596;-41
2023/04/08 12:06:35;;;;;;;;;;;6.10;73.90;;;;;;5103436;27;87135;-40
2023/04/08 12:09:00;;;;;;;;;;;6.10;73.90;;;;;;5104531;27;88844;-40
2023/04/08 12:11:26;;;;;;;;;;;6.10;74.00;;;;;;5103491;27;89846;-40
2023/04/08 12:13:51;;;;;;;;;;;6.10;74.10;;;;;;5095209;27;87078;-41
2023/04/08 12:16:17;;;;;;;;;;;6.00;74.10;;;;;;5103307;27;88030;-41
2023/04/08 12:18:43;;;;;;;;;;;6.10;74.30;;;;;;5103182;27;89412;-40
2023/04/08 12:21:09;;;;;;;;;;;6.00;74.20;;;;;;5103993;27;87088;-41
2023/04/08 12:23:35;;;;;;;;;;;6.10;74.20;;;;;;5105634;27;89308;-41
2023/04/08 12:26:01;;;;;;;;;;;6.10;74.40;;;;;;5102990;27;87194;-41
2023/04/08 12:28:26;;;;;;;;;;;6.10;74.50;;;;;;5103272;27;89233;-41
2023/04/08 12:30:52;;;;;;;;;;;6.10;74.50;;;;;;5102962;27;89417;-41
2023/04/08 12:33:17;;;;;;;;;;;6.10;74.60;;;;;;5100058;27;87468;-41
2023/04/08 12:35:43;;;;;;;;;;;6.10;74.60;;;;;;5103282;27;87456;-41
2023/04/08 12:38:09;;;;;;;;;;;6.10;74.60;;;;;;5102939;27;90019;-41
2023/04/08 12:40:35;;;;;;;;;;;6.20;74.60;;;;;;5102898;27;88096;-41
2023/04/08 12:43:00;;;;;;;;;;;6.20;74.70;;;;;;5103395;27;89813;-41
2023/04/08 12:45:26;;;;;;;;;;;6.20;74.70;;;;;;5106302;27;89455;-41
2023/04/08 12:47:51;;;;;;;;;;;6.30;74.40;;;;;;5103911;27;87367;-41
2023/04/08 12:50:16;;;;;;;;;;;6.30;74.80;;;;;;5103096;27;89360;-41
2023/04/08 12:52:42;;;;;;;;;;;6.30;74.50;;;;;;5103444;27;87049;-40
2023/04/08 12:55:08;;;;;;;;;;;6.30;74.70;;;;;;5102693;27;88396;-40
2023/04/08 12:57:33;;;;;;;;;;;6.30;74.60;;;;;;5103030;27;88577;-40
2023/04/08 12:59:59;;;;;;;;;;;6.30;74.50;;;;;;5102969;27;87232;-40
2023/04/08 13:02:25;;;;;;;;;;;6.30;74.60;;;;;;5103404;27;87385;-40
2023/04/08 13:04:52;;;;;;;;;;;6.40;74.50;;;;;;5101811;27;90209;-40
2023/04/08 13:07:17;;;;;;;;;;;6.40;74.30;;;;;;5105828;27;87097;-40
2023/04/08 13:09:43;;;;;;;;;;;6.40;74.20;;;;;;5101258;27;91308;-40
2023/04/08 13:12:09;;;;;;;;;;;6.40;74.40;;;;;;5102298;27;87240;-40
2023/04/08 13:14:34;;;;;;;;;;;6.40;74.50;;;;;;5098361;27;88810;-41
2023/04/08 13:17:00;;;;;;;;;;;6.40;74.50;;;;;;5101610;27;89059;-40
2023/04/08 13:19:26;;;;;;;;;;;6.40;74.40;;;;;;5102733;27;87145;-41
2023/04/08 13:21:51;;;;;;;;;;;6.50;74.30;;;;;;5103137;27;89037;-40
2023/04/08 13:24:17;;;;;;;;;;;6.50;74.30;;;;;;5102425;27;88731;-40
2023/04/08 13:26:42;;;;;;;;;;;6.50;74.30;;;;;;5105288;27;87821;-40
2023/04/08 13:29:08;;;;;;;;;;;6.60;74.30;;;;;;5101541;27;90785;-41
2023/04/08 13:31:33;;;;;;;;;;;6.60;74.20;;;;;;5102841;27;87035;-40
2023/04/08 13:33:58;;;;;;;;;;;6.60;74.00;;;;;;5102610;27;89233;-41
2023/04/08 13:36:25;;;;;;;;;;;6.60;74.40;;;;;;5101811;27;89265;-40
2023/04/08 13:38:51;;;;;;;;;;;6.60;74.60;;;;;;5101823;27;87121;-40
2023/04/08 13:41:16;;;;;;;;;;;6.60;74.50;;;;;;5102131;27;87406;-40
2023/04/08 13:43:42;;;;;;;;;;;6.60;74.60;;;;;;5101471;27;87166;-40
2023/04/08 13:46:07;;;;;;;;;;;6.70;74.70;;;;;;5102406;27;87011;-40
2023/04/08 13:48:33;;;;;;;;;;;6.70;74.70;;;;;;5104455;27;88258;-40
2023/04/08 13:50:58;;;;;;;;;;;6.70;75.10;;;;;;5102364;27;87057;-40
2023/04/08 13:53:24;;;;;;;;;;;6.80;75.00;;;;;;5101387;27;88752;-40
2023/04/08 13:55:53;;;;;;;;;;;6.80;75.10;;;;;;5101375;27;88631;-40
2023/04/08 13:58:20;;;;;;;;;;;6.90;75.20;;;;;;5102199;27;87107;-40
2023/04/08 14:00:46;;;;;;;;;;;6.90;75.30;;;;;;5102520;27;88957;-40
2023/04/08 14:03:11;;;;;;;;;;;6.90;75.20;;;;;;5101965;27;89716;-41
2023/04/08 14:05:37;;;;;;;;;;;7.00;75.30;;;;;;5102642;27;87099;-41
2023/04/08 14:08:02;;;;;;;;;;;7.00;75.40;;;;;;5102469;27;87547;-41
2023/04/08 14:10:28;;;;;;;;;;;7.00;75.10;;;;;;5105260;27;88720;-41
2023/04/08 14:12:53;;;;;;;;;;;7.00;75.30;;;;;;5102059;27;87751;-41
2023/04/08 14:15:19;;;;;;;;;;;7.00;75.30;;;;;;5101451;27;89378;-40
2023/04/08 14:17:44;;;;;;;;;;;7.00;75.20;;;;;;5101300;27;88047;-40
2023/04/08 14:20:10;;;;;;;;;;;7.00;75.10;;;;;;5101682;27;89935;-40
2023/04/08 14:22:35;;;;;;;;;;;7.00;75.10;;;;;;5101802;27;89193;-41
2023/04/08 14:25:01;;;;;;;;;;;7.00;75.10;;;;;;5102289;27;87441;-41